Time;durP1;ratioP1;P1;durP2;ratioP2;P2;SDS_P1;SDS_P2;PMS_P1;PMS_P2;Temp;Humidity;BMP_temperature;BMP_pressure;BME280_temperature;BME280_humidity;BME280_pressure;Samples;Min_cycle;Max_cycle;Signal;HPM_P1;HPM_P2
2022/04/20 00:00:31;;;;;;;13.98;9.55;;;11.00;30.00;;;;;;4975415;28;25124;-66
2022/04/20 00:02:56;;;;;;;19.65;10.27;;;11.00;30.00;;;;;;4977274;28;25132;-65
2022/04/20 00:05:22;;;;;;;16.67;10.30;;;11.00;30.80;;;;;;4978078;28;25067;-66
2022/04/20 00:07:47;;;;;;;20.25;11.05;;;10.90;31.80;;;;;;4980065;28;25070;-65
2022/04/20 00:10:13;;;;;;;17.35;10.27;;;10.90;32.60;;;;;;4981198;28;25066;-64
2022/04/20 00:12:39;;;;;;;21.00;10.07;;;10.90;33.20;;;;;;4979402;28;25099;-64
2022/04/20 00:15:05;;;;;;;15.65;10.20;;;10.90;33.20;;;;;;4976208;28;25052;-64
2022/04/20 00:17:30;;;;;;;21.42;11.15;;;10.80;34.40;;;;;;4977615;28;25070;-65
2022/04/20 00:19:56;;;;;;;18.85;10.68;;;10.80;35.30;;;;;;4976163;28;25077;-65
2022/04/20 00:22:22;;;;;;;20.17;11.50;;;10.80;34.90;;;;;;4974492;28;25137;-64
2022/04/20 00:24:47;;;;;;;16.23;10.63;;;10.80;35.90;;;;;;4975530;28;25087;-65
2022/04/20 00:27:13;;;;;;;17.27;10.10;;;10.70;36.40;;;;;;4975565;28;25146;-64
2022/04/20 00:29:38;;;;;;;17.38;10.23;;;10.60;37.10;;;;;;5035316;22;25066;-62
2022/04/20 00:32:04;;;;;;;21.88;11.45;;;10.60;38.00;;;;;;5037175;28;25080;-63
2022/04/20 00:34:30;;;;;;;19.10;10.85;;;10.60;38.20;;;;;;5036207;28;25051;-63
2022/04/20 00:36:55;;;;;;;21.33;11.13;;;10.60;38.60;;;;;;5034920;28;25084;-63
2022/04/20 00:39:21;;;;;;;17.50;11.68;;;10.50;39.10;;;;;;5034977;28;25055;-63
2022/04/20 00:41:48;;;;;;;16.50;10.32;;;10.50;39.20;;;;;;5038540;28;25081;-62
2022/04/20 00:44:14;;;;;;;17.00;11.05;;;10.50;39.50;;;;;;5038000;28;25071;-62
2022/04/20 00:46:41;;;;;;;17.30;10.25;;;10.50;39.50;;;;;;5036322;28;25067;-65
2022/04/20 00:49:07;;;;;;;22.15;11.18;;;10.40;39.80;;;;;;5036891;28;25095;-61
2022/04/20 00:51:33;;;;;;;15.23;10.93;;;10.40;40.20;;;;;;5033164;28;25100;-63
2022/04/20 00:54:00;;;;;;;17.92;11.38;;;10.30;40.40;;;;;;5037718;28;25090;-62
2022/04/20 00:56:27;;;;;;;20.92;10.98;;;10.30;40.80;;;;;;5034963;28;25069;-62
2022/04/20 00:58:53;;;;;;;20.65;10.88;;;10.30;41.00;;;;;;5034705;28;25076;-61
2022/04/20 01:01:19;;;;;;;17.75;10.70;;;10.30;41.40;;;;;;5035716;28;25141;-63
2022/04/20 01:03:45;;;;;;;18.20;10.73;;;10.20;42.00;;;;;;5036588;28;25192;-65
2022/04/20 01:06:10;;;;;;;20.38;11.60;;;10.20;42.60;;;;;;5036746;28;25062;-63
2022/04/20 01:08:36;;;;;;;15.93;10.00;;;10.10;42.30;;;;;;5034716;28;25068;-61
2022/04/20 01:11:02;;;;;;;22.65;11.50;;;10.10;42.50;;;;;;5039381;28;25072;-65
2022/04/20 01:13:28;;;;;;;17.85;11.07;;;10.10;42.70;;;;;;5039014;28;25065;-64
2022/04/20 01:15:54;;;;;;;19.85;11.45;;;10.00;43.00;;;;;;5038062;28;25064;-62
2022/04/20 01:18:20;;;;;;;23.38;11.85;;;10.00;43.30;;;;;;5038637;28;25070;-61
2022/04/20 01:20:45;;;;;;;19.77;11.55;;;10.00;43.70;;;;;;5039061;28;25129;-63
2022/04/20 01:23:11;;;;;;;16.90;10.65;;;9.90;44.00;;;;;;5038041;28;25069;-62
2022/04/20 01:25:37;;;;;;;15.73;10.27;;;9.90;44.30;;;;;;5039654;28;25077;-63
2022/04/20 01:28:04;;;;;;;17.35;10.68;;;10.00;44.30;;;;;;5038777;28;25124;-63
2022/04/20 01:30:30;;;;;;;22.13;11.57;;;9.90;44.10;;;;;;5037228;28;25158;-63
2022/04/20 01:32:56;;;;;;;18.25;11.13;;;9.90;44.20;;;;;;5036716;28;25162;-64
2022/04/20 01:35:22;;;;;;;17.50;11.00;;;9.90;44.40;;;;;;5037041;28;25110;-62
2022/04/20 01:37:49;;;;;;;22.65;11.38;;;9.90;44.90;;;;;;5036085;28;25171;-63
2022/04/20 01:40:15;;;;;;;23.58;11.35;;;9.80;44.50;;;;;;5036801;28;25145;-63
2022/04/20 01:42:40;;;;;;;16.85;10.93;;;9.80;44.90;;;;;;5040306;28;25076;-64
2022/04/20 01:45:06;;;;;;;18.58;11.05;;;9.70;45.40;;;;;;5038090;28;25114;-64
2022/04/20 01:47:32;;;;;;;17.63;10.82;;;9.70;45.30;;;;;;5036734;28;25105;-63
2022/04/20 01:49:58;;;;;;;16.63;10.07;;;9.70;44.80;;;;;;5038846;28;25074;-61
2022/04/20 01:52:23;;;;;;;18.75;11.18;;;9.70;44.60;;;;;;5038079;28;25081;-63
2022/04/20 01:54:49;;;;;;;15.82;10.07;;;9.70;44.40;;;;;;5037704;28;25068;-62
2022/04/20 01:57:14;;;;;;;21.13;11.52;;;9.70;44.10;;;;;;5036029;28;25071;-62
2022/04/20 01:59:40;;;;;;;17.27;9.90;;;9.70;43.60;;;;;;5038925;28;25135;-62
2022/04/20 02:04:49;;;;;;;16.60;10.27;;;9.70;43.50;;;;;;5039691;28;25085;-62
2022/04/20 02:07:15;;;;;;;22.00;10.60;;;9.60;43.80;;;;;;5038790;28;25120;-62
2022/04/20 02:09:40;;;;;;;18.50;11.00;;;9.60;44.40;;;;;;5039300;28;25069;-64
2022/04/20 02:12:08;;;;;;;15.07;9.40;;;9.60;44.60;;;;;;5037476;28;25103;-63
2022/04/20 02:14:33;;;;;;;18.65;10.27;;;9.50;44.50;;;;;;5042722;28;25065;-62
2022/04/20 02:16:59;;;;;;;19.42;11.85;;;9.40;45.20;;;;;;5040610;28;25138;-63
2022/04/20 02:19:24;;;;;;;21.77;11.98;;;9.40;45.60;;;;;;5040466;28;25047;-64
2022/04/20 02:21:50;;;;;;;17.88;10.98;;;9.30;45.80;;;;;;5039219;28;25072;-63
2022/04/20 02:24:16;;;;;;;20.30;10.98;;;9.30;46.30;;;;;;5039259;28;25070;-64
2022/04/20 02:26:41;;;;;;;17.98;11.73;;;9.30;45.80;;;;;;5040413;28;25072;-62
2022/04/20 02:29:07;;;;;;;18.42;11.43;;;9.30;46.00;;;;;;5045224;28;25056;-62
2022/04/20 02:31:32;;;;;;;15.40;10.32;;;9.30;46.50;;;;;;5048362;28;25050;-63
2022/04/20 02:33:58;;;;;;;16.73;9.98;;;9.20;46.90;;;;;;5041280;28;25148;-62
2022/04/20 02:36:24;;;;;;;19.20;10.75;;;9.20;46.80;;;;;;5039216;28;25077;-63
2022/04/20 02:38:50;;;;;;;18.95;11.27;;;9.20;46.90;;;;;;5039460;28;25074;-64
2022/04/20 02:41:16;;;;;;;15.90;9.73;;;9.20;47.30;;;;;;5039105;28;25096;-62
2022/04/20 02:43:42;;;;;;;16.92;10.50;;;9.10;47.50;;;;;;5038957;28;25061;-62
2022/04/20 02:46:08;;;;;;;18.52;11.07;;;9.10;47.20;;;;;;5041411;28;25063;-63
2022/04/20 02:48:34;;;;;;;17.33;10.63;;;9.10;47.40;;;;;;5038093;28;25109;-63
2022/04/20 02:51:00;;;;;;;15.73;10.40;;;9.10;47.80;;;;;;5039063;28;25083;-62
2022/04/20 02:53:25;;;;;;;17.08;10.38;;;9.00;47.70;;;;;;5036880;28;25143;-63
2022/04/20 02:55:51;;;;;;;17.10;9.65;;;9.00;47.90;;;;;;5038777;28;25088;-63
2022/04/20 02:58:17;;;;;;;17.00;10.45;;;9.00;47.70;;;;;;5037568;28;25080;-63
2022/04/20 03:00:43;;;;;;;16.10;10.07;;;8.90;47.90;;;;;;5039154;28;25085;-64
2022/04/20 03:03:09;;;;;;;13.55;9.02;;;8.90;47.70;;;;;;5037706;28;25066;-64
2022/04/20 03:05:34;;;;;;;16.52;10.02;;;8.90;47.60;;;;;;5035206;28;25100;-61
2022/04/20 03:08:00;;;;;;;18.30;10.40;;;8.90;48.00;;;;;;5037467;28;25073;-61
2022/04/20 03:10:26;;;;;;;17.42;10.40;;;8.80;47.80;;;;;;5038570;28;25135;-61
2022/04/20 03:12:52;;;;;;;17.45;11.07;;;8.80;48.40;;;;;;5038253;28;25104;-62
2022/04/20 03:15:18;;;;;;;15.98;10.10;;;8.80;48.30;;;;;;5038195;28;25106;-62
2022/04/20 03:17:43;;;;;;;17.23;10.20;;;8.80;48.00;;;;;;5036642;28;25068;-62
2022/04/20 03:20:10;;;;;;;20.00;10.70;;;8.70;48.20;;;;;;5037883;28;25077;-60
2022/04/20 03:22:35;;;;;;;17.73;10.10;;;8.70;48.40;;;;;;5036964;28;25074;-61
2022/04/20 03:25:01;;;;;;;15.80;10.25;;;8.60;48.70;;;;;;5037963;28;25083;-64
2022/04/20 03:27:26;;;;;;;13.88;9.80;;;8.60;48.70;;;;;;5036550;28;25048;-61
2022/04/20 03:29:52;;;;;;;16.10;10.10;;;8.60;48.20;;;;;;5036590;28;25071;-61
2022/04/20 03:32:17;;;;;;;22.40;10.32;;;8.50;48.60;;;;;;5034400;28;25049;-62
2022/04/20 03:34:43;;;;;;;15.55;10.25;;;8.40;48.40;;;;;;5036316;28;25071;-64
2022/04/20 03:37:09;;;;;;;17.13;10.38;;;8.40;48.80;;;;;;5036091;28;25060;-62
2022/04/20 03:39:36;;;;;;;14.82;9.75;;;8.40;48.60;;;;;;5036829;28;25054;-60
2022/04/20 03:42:02;;;;;;;14.93;9.95;;;8.30;49.00;;;;;;5036198;28;25067;-61
2022/04/20 03:44:27;;;;;;;14.55;10.02;;;8.40;48.30;;;;;;5035822;28;25100;-63
2022/04/20 03:46:53;;;;;;;15.93;9.88;;;8.40;48.80;;;;;;5037896;28;25139;-61
2022/04/20 03:49:19;;;;;;;15.23;9.60;;;8.40;48.20;;;;;;5036315;28;25046;-63
2022/04/20 03:51:46;;;;;;;18.38;9.55;;;8.30;48.50;;;;;;5037644;28;25076;-61
2022/04/20 03:54:12;;;;;;;18.58;9.77;;;8.30;48.30;;;;;;5035040;28;25126;-61
2022/04/20 03:59:22;;;;;;;14.65;10.15;;;8.30;48.90;;;;;;5036112;28;25078;-62
2022/04/20 04:01:48;;;;;;;15.77;9.48;;;8.30;48.40;;;;;;5035332;28;25061;-62
2022/04/20 04:04:13;;;;;;;14.05;9.63;;;8.30;48.70;;;;;;5036091;28;25107;-63
2022/04/20 04:06:39;;;;;;;13.88;9.45;;;8.20;49.30;;;;;;5035406;28;25113;-61
2022/04/20 04:09:04;;;;;;;14.98;9.43;;;8.20;48.90;;;;;;5035334;28;25061;-61
2022/04/20 04:11:30;;;;;;;16.75;9.75;;;8.20;48.40;;;;;;5032863;28;25097;-62
2022/04/20 04:13:55;;;;;;;14.32;9.20;;;8.20;48.40;;;;;;5035929;28;25123;-63
2022/04/20 04:16:21;;;;;;;13.73;8.23;;;8.20;47.70;;;;;;5032769;28;25148;-63
2022/04/20 04:18:46;;;;;;;14.88;9.27;;;8.20;47.20;;;;;;5035229;28;25077;-62
2022/04/20 04:21:12;;;;;;;14.65;8.82;;;8.20;46.00;;;;;;5034812;28;25070;-62
2022/04/20 04:23:38;;;;;;;15.02;9.32;;;8.20;46.30;;;;;;5033938;28;25090;-62
2022/04/20 04:26:03;;;;;;;17.88;8.77;;;8.20;46.00;;;;;;5033220;28;25107;-64
2022/04/20 04:28:29;;;;;;;17.67;8.70;;;8.20;45.70;;;;;;5032460;28;25086;-63
2022/04/20 04:30:54;;;;;;;11.65;8.10;;;8.20;44.30;;;;;;5034309;28;25113;-62
2022/04/20 04:33:20;;;;;;;14.23;8.73;;;8.20;43.70;;;;;;5036078;28;25085;-66
2022/04/20 04:35:46;;;;;;;12.38;8.38;;;8.30;43.60;;;;;;5035673;28;25064;-64
2022/04/20 04:38:12;;;;;;;13.02;8.30;;;8.30;42.10;;;;;;5033988;28;25153;-61
2022/04/20 04:40:38;;;;;;;11.73;7.65;;;8.30;41.50;;;;;;5033987;28;25080;-63
2022/04/20 04:43:04;;;;;;;12.70;7.65;;;8.30;41.10;;;;;;5033846;28;25139;-63
2022/04/20 04:50:58;;;;;;;10.73;7.68;;;8.30;39.80;;;;;;5031773;28;25059;-61
2022/04/20 04:53:23;;;;;;;12.13;7.63;;;8.30;39.30;;;;;;5031156;28;25062;-63
2022/04/20 04:55:49;;;;;;;16.60;7.63;;;8.30;39.30;;;;;;5030144;28;25060;-63
2022/04/20 04:58:15;;;;;;;11.45;7.85;;;8.30;38.50;;;;;;5030270;28;25055;-63
2022/04/20 05:00:40;;;;;;;13.60;7.43;;;8.30;38.40;;;;;;5030959;28;25067;-63
2022/04/20 05:03:08;;;;;;;12.57;8.23;;;8.30;38.60;;;;;;5033702;28;25081;-61
2022/04/20 05:05:34;;;;;;;10.13;7.22;;;8.40;38.70;;;;;;5031556;28;25154;-62
2022/04/20 05:07:59;;;;;;;13.23;7.45;;;8.40;38.30;;;;;;5033444;28;25096;-63
2022/04/20 05:10:25;;;;;;;12.00;7.95;;;8.40;38.20;;;;;;5033761;28;25127;-62
2022/04/20 05:12:50;;;;;;;12.20;8.07;;;8.40;38.50;;;;;;5034583;28;25155;-64
2022/04/20 05:15:16;;;;;;;10.10;7.32;;;8.30;38.90;;;;;;5033652;28;25103;-62
2022/04/20 05:17:42;;;;;;;11.60;7.75;;;8.30;38.70;;;;;;5030410;28;25064;-64
2022/04/20 05:20:08;;;;;;;9.93;6.88;;;8.30;38.80;;;;;;5029342;28;25055;-63
2022/04/20 05:22:33;;;;;;;12.57;7.63;;;8.30;37.90;;;;;;5031430;28;25076;-63
2022/04/20 05:24:59;;;;;;;13.00;7.75;;;8.30;38.30;;;;;;5031967;28;25076;-63
2022/04/20 05:27:24;;;;;;;10.88;7.10;;;8.30;38.50;;;;;;5030494;28;25102;-63
2022/04/20 05:29:50;;;;;;;11.93;7.38;;;8.30;38.90;;;;;;5031798;28;25135;-63
2022/04/20 05:32:16;;;;;;;17.10;7.82;;;8.40;38.10;;;;;;5031493;28;25069;-62
2022/04/20 05:34:41;;;;;;;12.10;7.25;;;8.30;38.00;;;;;;5030112;28;25058;-62
2022/04/20 05:42:36;;;;;;;10.43;6.93;;;8.40;37.90;;;;;;5028391;28;25052;-64
2022/04/20 05:45:02;;;;;;;12.63;7.35;;;8.40;37.90;;;;;;5031194;28;25139;-63
2022/04/20 05:47:29;;;;;;;13.02;6.65;;;8.40;36.70;;;;;;5031842;28;25064;-63
2022/04/20 05:49:55;;;;;;;11.75;6.95;;;8.50;36.40;;;;;;5032905;28;25141;-62
2022/04/20 05:52:20;;;;;;;11.05;6.72;;;8.50;35.20;;;;;;5034081;28;25077;-64
2022/04/20 05:54:46;;;;;;;13.45;6.82;;;8.50;34.80;;;;;;5031706;28;25055;-63
2022/04/20 05:57:11;;;;;;;10.35;6.47;;;8.60;35.20;;;;;;5035836;28;25083;-64
2022/04/20 05:59:37;;;;;;;12.75;7.03;;;8.70;34.90;;;;;;5036602;28;25117;-63
2022/04/20 06:02:02;;;;;;;10.20;6.20;;;8.70;33.90;;;;;;5036817;28;25065;-65
2022/04/20 06:04:29;;;;;;;9.32;6.40;;;8.80;32.80;;;;;;5036205;28;25066;-63
2022/04/20 06:06:55;;;;;;;12.20;7.20;;;8.80;32.20;;;;;;5036548;28;25112;-63
2022/04/20 06:09:20;;;;;;;9.90;6.07;;;8.90;31.80;;;;;;5035940;28;25317;-63
2022/04/20 06:11:46;;;;;;;12.38;6.75;;;8.80;30.60;;;;;;5036258;28;25053;-63
2022/04/20 06:14:11;;;;;;;12.07;6.43;;;8.90;30.50;;;;;;5036752;28;25044;-66
2022/04/20 06:16:37;;;;;;;9.63;6.13;;;9.00;30.80;;;;;;5036271;28;25056;-65
2022/04/20 06:19:02;;;;;;;10.07;6.18;;;9.10;30.20;;;;;;5037206;28;25060;-63
2022/04/20 06:21:28;;;;;;;9.15;5.97;;;9.20;29.40;;;;;;5038479;28;25088;-63
2022/04/20 06:23:54;;;;;;;13.07;5.95;;;9.30;28.90;;;;;;5038100;28;25092;-63
2022/04/20 06:26:19;;;;;;;9.68;5.95;;;9.30;28.70;;;;;;5038212;28;25116;-63
2022/04/20 06:28:45;;;;;;;9.30;6.10;;;9.40;28.50;;;;;;5040001;28;25142;-63
2022/04/20 06:31:10;;;;;;;9.07;5.85;;;9.40;28.20;;;;;;5036637;28;25062;-63
2022/04/20 06:33:36;;;;;;;10.27;6.28;;;9.40;28.40;;;;;;5035727;28;25134;-63
2022/04/20 06:36:02;;;;;;;10.57;6.70;;;9.50;27.90;;;;;;5036231;28;25071;-62
2022/04/20 06:38:28;;;;;;;9.07;6.15;;;9.60;28.20;;;;;;5035294;28;25124;-64
2022/04/20 06:40:53;;;;;;;15.38;6.03;;;9.70;28.10;;;;;;5034635;28;25078;-62
2022/04/20 06:43:20;;;;;;;10.48;5.68;;;9.70;28.00;;;;;;5035694;28;25141;-63
2022/04/20 06:45:45;;;;;;;8.98;6.30;;;9.80;27.90;;;;;;5034545;28;25117;-63
2022/04/20 06:48:11;;;;;;;9.60;6.20;;;9.90;27.90;;;;;;5035141;28;25068;-62
2022/04/20 06:50:39;;;;;;;9.98;6.18;;;10.00;26.90;;;;;;5033354;28;25138;-63
2022/04/20 06:58:35;;;;;;;9.23;5.97;;;10.20;25.90;;;;;;5035138;28;25076;-63
2022/04/20 07:01:01;;;;;;;11.48;5.50;;;10.40;25.40;;;;;;5039066;28;25118;-63
2022/04/20 07:03:27;;;;;;;8.80;5.38;;;10.50;25.50;;;;;;5054042;28;25052;-63
2022/04/20 07:05:53;;;;;;;7.55;5.70;;;10.70;24.40;;;;;;5048389;28;25064;-64
2022/04/20 07:08:19;;;;;;;9.20;5.78;;;10.90;23.90;;;;;;5043902;28;25063;-62
2022/04/20 07:10:47;;;;;;;7.97;5.10;;;11.00;23.50;;;;;;5040310;28;25131;-62
2022/04/20 07:13:13;;;;;;;8.63;5.20;;;11.00;21.60;;;;;;5038990;28;25147;-62
2022/04/20 07:15:38;;;;;;;11.07;5.45;;;11.00;21.70;;;;;;5038116;28;25071;-63
2022/04/20 07:18:05;;;;;;;9.90;4.65;;;11.10;21.30;;;;;;5037357;28;25067;-62
2022/04/20 07:20:31;;;;;;;6.78;5.00;;;11.20;20.90;;;;;;5038881;28;25061;-63
2022/04/20 07:22:56;;;;;;;8.85;5.10;;;11.40;19.80;;;;;;5042973;28;25068;-63
2022/04/20 07:25:23;;;;;;;8.68;5.25;;;11.40;18.30;;;;;;5042295;28;25109;-63
2022/04/20 07:27:48;;;;;;;5.68;4.97;;;11.50;18.10;;;;;;5041711;28;25070;-63
2022/04/20 07:30:15;;;;;;;12.45;4.97;;;11.60;15.90;;;;;;5037692;28;25055;-63
2022/04/20 07:32:41;;;;;;;8.25;4.57;;;11.60;15.50;;;;;;5033243;28;25113;-63
2022/04/20 07:35:07;;;;;;;9.07;4.50;;;11.80;15.40;;;;;;5034883;28;25091;-63
2022/04/20 07:37:32;;;;;;;12.85;5.05;;;12.10;13.90;;;;;;5034131;28;25070;-63
2022/04/20 07:39:58;;;;;;;10.00;4.47;;;12.10;11.80;;;;;;5034416;28;25084;-62
2022/04/20 07:42:24;;;;;;;5.97;4.50;;;12.30;11.90;;;;;;5034364;28;25075;-65
2022/04/20 07:44:50;;;;;;;7.68;4.47;;;12.50;12.40;;;;;;5040521;28;25077;-63
2022/04/20 07:47:16;;;;;;;5.78;4.20;;;12.70;10.70;;;;;;5034737;28;25050;-66
2022/04/20 07:52:25;;;;;;;7.90;4.03;;;12.70;7.80;;;;;;5033662;28;25144;-62
2022/04/20 07:54:51;;;;;;;7.38;4.57;;;13.00;9.20;;;;;;5031772;28;25142;-63
2022/04/20 07:57:16;;;;;;;7.60;4.07;;;13.30;8.40;;;;;;5033786;28;25065;-63
2022/04/20 07:59:42;;;;;;;7.57;4.43;;;13.20;6.10;;;;;;5032491;28;25131;-63
2022/04/20 08:02:08;;;;;;;9.23;4.90;;;13.40;8.20;;;;;;5033928;28;25065;-63
2022/04/20 08:04:34;;;;;;;5.40;4.00;;;13.80;6.80;;;;;;5033038;28;25075;-63
2022/04/20 08:06:59;;;;;;;9.40;4.20;;;13.70;3.80;;;;;;5033303;28;25118;-64
2022/04/20 08:09:25;;;;;;;10.23;4.10;;;13.80;4.00;;;;;;5033512;28;25060;-63
2022/04/20 08:11:51;;;;;;;4.40;3.75;;;13.80;4.50;;;;;;5032353;28;25060;-64
2022/04/20 08:14:16;;;;;;;10.30;4.38;;;14.10;4.00;;;;;;5034176;28;25065;-64
2022/04/20 08:16:43;;;;;;;6.63;4.60;;;14.40;1.90;;;;;;5034138;28;25138;-66
2022/04/20 08:19:10;;;;;;;7.97;4.35;;;14.20;1.30;;;;;;5034424;28;25062;-64
2022/04/20 08:21:36;;;;;;;11.48;4.30;;;14.30;2.70;;;;;;5033256;28;25064;-64
2022/04/20 08:24:01;;;;;;;7.72;4.30;;;14.80;2.80;;;;;;5032282;28;25081;-62
2022/04/20 08:26:27;;;;;;;9.48;5.25;;;15.10;1.50;;;;;;5033496;28;25070;-63
2022/04/20 08:28:52;;;;;;;8.90;4.68;;;15.30;2.70;;;;;;5032643;28;25185;-63
2022/04/20 08:31:18;;;;;;;5.72;4.25;;;15.00;1.00;;;;;;5033602;28;25150;-63
2022/04/20 08:33:44;;;;;;;5.88;3.67;;;14.90;3.00;;;;;;5032621;28;25120;-62
2022/04/20 08:36:12;;;;;;;7.60;4.60;;;15.00;3.10;;;;;;5033414;28;25065;-62
2022/04/20 08:38:39;;;;;;;6.75;4.43;;;14.60;2.40;;;;;;5032312;28;25065;-62
2022/04/20 08:41:05;;;;;;;12.38;4.30;;;14.60;3.30;;;;;;5033305;28;25072;-63
2022/04/20 08:43:32;;;;;;;6.15;4.20;;;14.80;4.60;;;;;;5032153;28;25068;-63
2022/04/20 08:46:02;;;;;;;8.38;4.22;;;14.70;3.70;;;;;;5032504;28;25132;-62
2022/04/20 08:48:28;;;;;;;8.38;4.13;;;14.60;4.20;;;;;;5032770;28;25157;-62
2022/04/20 08:50:54;;;;;;;7.20;4.22;;;14.70;3.40;;;;;;5030795;28;25111;-63
2022/04/20 08:53:21;;;;;;;6.45;4.30;;;14.80;2.40;;;;;;5032669;28;25098;-63
2022/04/20 08:55:46;;;;;;;5.03;3.90;;;14.70;3.50;;;;;;5033023;28;25096;-64
2022/04/20 08:58:12;;;;;;;7.57;3.78;;;14.80;2.50;;;;;;5033057;28;25129;-63
2022/04/20 09:00:38;;;;;;;10.18;3.78;;;14.90;1.90;;;;;;5033125;28;25069;-64
2022/04/20 09:03:04;;;;;;;7.38;4.57;;;15.00;1.40;;;;;;5032550;28;25092;-63
2022/04/20 09:05:34;;;;;;;14.18;4.15;;;15.00;1.00;;;;;;5032262;28;25107;-63
2022/04/20 09:08:09;;;;;;;5.97;3.53;;;15.00;1.00;;;;;;5032259;28;25104;-65
2022/04/20 09:10:36;;;;;;;9.38;4.30;;;15.10;1.00;;;;;;5030091;28;25059;-63
2022/04/20 09:13:04;;;;;;;6.22;3.97;;;15.30;1.40;;;;;;5032369;28;25063;-63
2022/04/20 09:15:32;;;;;;;6.25;4.25;;;15.50;2.30;;;;;;5033615;28;25059;-64
2022/04/20 09:18:01;;;;;;;5.90;4.07;;;15.40;1.00;;;;;;5032044;28;25080;-61
2022/04/20 09:20:27;;;;;;;6.65;3.70;;;15.40;1.00;;;;;;5032252;28;25076;-64
2022/04/20 09:23:00;;;;;;;4.75;3.47;;;15.50;1.00;;;;;;5032647;28;25145;-64
2022/04/20 09:25:36;;;;;;;10.10;3.65;;;15.90;1.00;;;;;;5032416;28;25095;-62
2022/04/20 09:28:06;;;;;;;3.97;3.05;;;15.60;1.00;;;;;;5031739;28;25063;-63
2022/04/20 09:30:36;;;;;;;8.63;3.90;;;15.70;1.00;;;;;;5032608;28;25107;-63
2022/04/20 09:33:10;;;;;;;7.38;3.17;;;15.90;1.00;;;;;;5036176;28;25050;-61
2022/04/20 09:35:46;;;;;;;4.82;3.63;;;15.70;1.00;;;;;;5036726;28;25085;-63
2022/04/20 09:38:13;;;;;;;6.93;3.60;;;15.60;1.00;;;;;;5037199;28;25050;-62
2022/04/20 09:40:39;;;;;;;4.60;3.08;;;15.70;1.00;;;;;;5036230;28;25066;-62
2022/04/20 09:43:13;;;;;;;5.95;4.10;;;15.90;1.00;;;;;;5035704;28;25059;-62
2022/04/20 09:45:38;;;;;;;7.97;3.80;;;15.70;1.00;;;;;;5036495;28;25122;-63
2022/04/20 09:51:20;;;;;;;8.80;4.00;;;15.60;1.00;;;;;;5037143;28;25074;-63
2022/04/20 09:53:47;;;;;;;9.00;4.57;;;15.80;1.00;;;;;;5036330;28;25167;-62
2022/04/20 09:56:19;;;;;;;7.10;3.85;;;15.70;1.00;;;;;;5036576;28;25104;-64
2022/04/20 09:58:46;;;;;;;11.47;4.00;;;15.60;1.00;;;;;;5035207;28;25097;-61
2022/04/20 10:01:25;;;;;;;5.60;3.58;;;15.60;1.00;;;;;;5034371;28;25065;-63
2022/04/20 10:03:57;;;;;;;5.95;3.63;;;15.80;1.00;;;;;;5034677;28;25120;-62
2022/04/20 10:06:23;;;;;;;6.32;3.67;;;15.80;1.00;;;;;;5035596;28;25298;-63
2022/04/20 10:08:49;;;;;;;5.32;3.55;;;15.80;1.00;;;;;;5035452;28;25115;-63
2022/04/20 10:11:16;;;;;;;7.55;3.17;;;15.90;1.00;;;;;;5036108;28;25055;-64
2022/04/20 10:13:42;;;;;;;8.35;3.55;;;15.90;1.00;;;;;;5034649;28;25057;-63
2022/04/20 10:16:11;;;;;;;11.60;3.30;;;15.80;1.00;;;;;;5036792;28;25066;-65
2022/04/20 10:18:39;;;;;;;5.22;3.00;;;16.10;1.00;;;;;;5042487;28;25066;-62
2022/04/20 10:21:14;;;;;;;4.88;3.05;;;16.20;1.00;;;;;;5041920;28;25066;-64
2022/04/20 10:23:43;;;;;;;5.97;3.22;;;16.50;1.00;;;;;;5038641;28;25069;-63
2022/04/20 10:26:10;;;;;;;3.70;2.83;;;16.30;1.00;;;;;;5038794;28;25071;-63
2022/04/20 10:28:58;;;;;;;4.45;2.58;;;16.50;1.00;;;;;;5034878;28;25068;-63
2022/04/20 10:32:05;;;;;;;3.90;2.70;;;16.90;1.00;;;;;;5034741;28;25051;-65
2022/04/20 10:34:31;;;;;;;5.75;2.65;;;17.50;1.00;;;;;;5038510;28;25094;-63
2022/04/20 10:37:02;;;;;;;6.38;3.38;;;17.30;1.00;;;;;;5038361;28;25114;-63
2022/04/20 10:39:33;;;;;;;5.95;2.95;;;16.80;1.00;;;;;;5038184;28;25055;-63
2022/04/20 10:42:11;;;;;;;4.97;3.05;;;16.60;1.00;;;;;;5039380;28;25072;-63
2022/04/20 10:44:57;;;;;;;3.80;3.10;;;16.60;1.00;;;;;;5037631;28;25127;-62
2022/04/20 10:47:27;;;;;;;4.30;3.00;;;16.90;1.00;;;;;;5036392;28;25061;-62
2022/04/20 10:49:53;;;;;;;5.07;2.92;;;17.00;1.00;;;;;;5045352;22;25126;-64
2022/04/20 10:52:35;;;;;;;4.03;3.20;;;17.00;1.00;;;;;;5035736;28;25063;-66
2022/04/20 10:55:00;;;;;;;6.43;2.60;;;17.10;1.00;;;;;;5036678;28;25097;-66
2022/04/20 10:57:39;;;;;;;8.43;2.63;;;17.30;1.00;;;;;;5038998;28;25156;-64
2022/04/20 11:00:20;;;;;;;3.00;2.40;;;17.30;1.00;;;;;;5039532;28;25164;-68
2022/04/20 11:02:54;;;;;;;2.67;2.30;;;17.60;1.00;;;;;;5037426;28;25126;-66
2022/04/20 11:05:24;;;;;;;4.80;2.47;;;17.60;1.00;;;;;;5037018;28;25077;-66
2022/04/20 11:08:06;;;;;;;4.32;3.00;;;17.60;1.00;;;;;;5036405;28;25138;-66
2022/04/20 11:10:34;;;;;;;6.75;2.70;;;18.10;1.00;;;;;;5036115;28;25053;-65
2022/04/20 11:19:12;;;;;;;;;;;18.00;1.00;;;;;;4974795;28;25061;-65
2022/04/20 11:21:55;;;;;;;5.00;2.03;;;17.50;1.00;;;;;;5023007;28;24087;-66
2022/04/20 11:24:28;;;;;;;4.78;2.40;;;17.60;1.00;;;;;;5035519;28;25154;-66
2022/04/20 11:26:55;;;;;;;3.55;2.42;;;18.00;1.00;;;;;;5035828;28;25053;-66
2022/04/20 11:29:30;;;;;;;3.92;2.00;;;18.70;1.00;;;;;;5036824;28;25044;-67
2022/04/20 11:32:03;;;;;;;4.45;2.60;;;18.20;1.00;;;;;;5037814;28;25137;-66
2022/04/20 11:34:33;;;;;;;4.53;2.53;;;18.30;1.00;;;;;;5035221;28;25066;-66
2022/04/20 11:37:02;;;;;;;3.00;2.70;;;18.30;1.00;;;;;;5037069;28;25068;-65
2022/04/20 11:39:29;;;;;;;5.13;2.28;;;18.20;1.00;;;;;;5037380;28;25090;-66
2022/04/20 11:42:06;;;;;;;5.80;2.58;;;18.50;1.00;;;;;;5036632;28;25044;-64
2022/04/20 11:44:35;;;;;;;22.25;2.35;;;18.30;1.00;;;;;;5036982;28;25067;-65
2022/04/20 11:47:06;;;;;;;4.05;2.67;;;18.70;1.00;;;;;;5037695;28;25049;-65
2022/04/20 11:49:41;;;;;;;2.83;2.42;;;18.50;1.00;;;;;;5037439;28;25059;-65
2022/04/20 11:52:19;;;;;;;3.60;2.42;;;18.30;1.00;;;;;;5039637;28;25078;-66
2022/04/20 11:54:46;;;;;;;5.53;2.38;;;18.70;1.00;;;;;;5038877;28;25066;-64
2022/04/20 11:57:13;;;;;;;5.65;2.70;;;18.60;1.00;;;;;;5036566;28;25092;-64
2022/04/20 11:59:43;;;;;;;4.68;2.70;;;18.70;1.00;;;;;;5042368;28;25095;-64
2022/04/20 12:02:12;;;;;;;5.38;2.70;;;18.80;1.00;;;;;;5035763;28;25145;-66
2022/04/20 12:04:39;;;;;;;4.25;1.80;;;19.00;1.00;;;;;;5035411;28;25145;-65
2022/04/20 12:07:04;;;;;;;5.60;2.10;;;18.90;1.00;;;;;;5036503;28;25114;-66
2022/04/20 12:09:36;;;;;;;4.18;2.28;;;19.10;1.00;;;;;;5035658;28;25103;-66
2022/04/20 12:12:07;;;;;;;3.67;2.35;;;18.70;1.00;;;;;;5041628;28;25089;-65
2022/04/20 12:14:35;;;;;;;6.60;2.53;;;18.70;1.00;;;;;;5039325;28;25072;-65
2022/04/20 12:17:07;;;;;;;3.03;2.15;;;18.70;1.00;;;;;;5035768;28;25065;-64
2022/04/20 12:19:33;;;;;;;3.55;2.20;;;19.10;1.00;;;;;;5034889;28;25111;-65
2022/04/20 12:22:10;;;;;;;3.22;2.25;;;18.70;1.00;;;;;;5034969;28;25094;-65
2022/04/20 12:24:37;;;;;;;5.72;2.30;;;18.60;1.00;;;;;;5033354;28;25064;-66
2022/04/20 12:27:04;;;;;;;4.40;2.58;;;18.80;1.00;;;;;;5035797;28;25064;-66
2022/04/20 12:29:33;;;;;;;7.10;2.40;;;18.90;1.00;;;;;;5035173;28;25152;-66
2022/04/20 12:32:00;;;;;;;2.72;1.63;;;18.70;1.00;;;;;;5033290;28;25152;-65
2022/04/20 12:34:28;;;;;;;5.10;2.38;;;18.80;1.00;;;;;;5034717;28;25081;-66
2022/04/20 12:37:04;;;;;;;4.35;2.25;;;19.10;1.00;;;;;;5035322;28;25057;-65
2022/04/20 12:39:35;;;;;;;4.63;1.80;;;19.00;1.00;;;;;;5035510;28;25059;-64
2022/04/20 12:42:05;;;;;;;10.32;2.30;;;19.30;1.00;;;;;;5035052;28;25163;-66
2022/04/20 12:45:02;;;;;;;4.35;2.05;;;19.20;1.00;;;;;;5034628;28;25100;-66
2022/04/20 12:47:28;;;;;;;2.30;2.10;;;18.60;1.00;;;;;;5035718;28;25057;-66
2022/04/20 12:49:58;;;;;;;3.88;2.50;;;18.50;1.00;;;;;;5033831;28;25062;-64
2022/04/20 12:52:25;;;;;;;4.82;2.50;;;19.00;1.00;;;;;;5034337;28;25074;-66
2022/04/20 12:54:55;;;;;;;3.85;2.83;;;19.20;1.00;;;;;;5035302;28;25097;-65
2022/04/20 13:02:56;;;;;;;4.57;2.72;;;18.90;1.00;;;;;;5037530;28;25062;-65
2022/04/20 13:05:22;;;;;;;3.17;2.45;;;18.70;1.00;;;;;;5037506;28;25134;-65
2022/04/20 13:07:47;;;;;;;3.70;2.40;;;18.30;1.00;;;;;;5038241;28;25177;-64
2022/04/20 13:10:13;;;;;;;4.93;2.83;;;17.90;1.00;;;;;;5040198;28;25071;-66
2022/04/20 13:12:49;;;;;;;2.83;2.13;;;18.00;1.00;;;;;;5039790;28;25071;-65
2022/04/20 13:15:14;;;;;;;4.35;2.60;;;18.20;1.00;;;;;;5038537;28;25058;-65
2022/04/20 13:17:40;;;;;;;4.38;2.78;;;18.00;1.00;;;;;;5039406;28;25048;-66
2022/04/20 13:20:07;;;;;;;3.53;2.45;;;17.80;1.00;;;;;;5040330;28;25078;-65
2022/04/20 13:22:33;;;;;;;8.75;2.95;;;18.00;1.00;;;;;;5040562;28;25163;-63
2022/04/20 13:27:54;;;;;;;3.97;2.42;;;18.20;1.00;;;;;;5040615;28;25088;-66
2022/04/20 13:30:28;;;;;;;4.60;2.47;;;18.10;1.00;;;;;;5041108;28;25154;-67